sensor_id;sensor_type;location;lat;lon;timestamp;P1;durP1;ratioP1;P2;durP2;ratioP2
71655;SDS011;59497;48.798;8.816;2023-07-13T00:00:46;5.40;;;1.07;;
71655;SDS011;59497;48.798;8.816;2023-07-13T00:03:11;2.53;;;0.98;;
71655;SDS011;59497;48.798;8.816;2023-07-13T00:05:38;1.20;;;0.90;;
71655;SDS011;59497;48.798;8.816;2023-07-13T00:08:03;1.20;;;1.10;;
71655;SDS011;59497;48.798;8.816;2023-07-13T00:10:29;3.50;;;1.30;;
71655;SDS011;59497;48.798;8.816;2023-07-13T00:12:54;1.40;;;0.77;;
71655;SDS011;59497;48.798;8.816;2023-07-13T00:15:21;2.73;;;1.17;;
71655;SDS011;59497;48.798;8.816;2023-07-13T00:17:48;1.77;;;1.30;;
71655;SDS011;59497;48.798;8.816;2023-07-13T00:20:13;2.23;;;0.90;;
71655;SDS011;59497;48.798;8.816;2023-07-13T00:22:39;4.27;;;1.40;;
71655;SDS011;59497;48.798;8.816;2023-07-13T00:25:04;3.20;;;1.08;;
71655;SDS011;59497;48.798;8.816;2023-07-13T00:27:30;1.20;;;0.83;;
71655;SDS011;59497;48.798;8.816;2023-07-13T00:29:56;1.33;;;1.00;;
71655;SDS011;59497;48.798;8.816;2023-07-13T00:32:21;3.17;;;1.00;;
71655;SDS011;59497;48.798;8.816;2023-07-13T00:34:47;2.17;;;1.20;;
71655;SDS011;59497;48.798;8.816;2023-07-13T00:37:12;2.00;;;1.00;;
71655;SDS011;59497;48.798;8.816;2023-07-13T00:39:37;2.97;;;1.43;;
71655;SDS011;59497;48.798;8.816;2023-07-13T00:42:04;2.75;;;1.20;;
71655;SDS011;59497;48.798;8.816;2023-07-13T00:44:29;1.70;;;0.90;;
71655;SDS011;59497;48.798;8.816;2023-07-13T00:46:55;4.53;;;1.10;;
71655;SDS011;59497;48.798;8.816;2023-07-13T00:49:22;1.98;;;1.08;;
71655;SDS011;59497;48.798;8.816;2023-07-13T00:51:49;1.93;;;1.17;;
71655;SDS011;59497;48.798;8.816;2023-07-13T00:54:17;3.93;;;0.87;;
71655;SDS011;59497;48.798;8.816;2023-07-13T00:56:43;1.48;;;1.20;;
71655;SDS011;59497;48.798;8.816;2023-07-13T00:59:09;2.25;;;1.27;;
71655;SDS011;59497;48.798;8.816;2023-07-13T01:01:35;3.30;;;1.70;;
71655;SDS011;59497;48.798;8.816;2023-07-13T01:04:02;2.83;;;1.80;;
71655;SDS011;59497;48.798;8.816;2023-07-13T01:06:27;2.23;;;1.10;;
71655;SDS011;59497;48.798;8.816;2023-07-13T01:08:52;4.47;;;1.23;;
71655;SDS011;59497;48.798;8.816;2023-07-13T01:11:19;1.67;;;0.98;;
71655;SDS011;59497;48.798;8.816;2023-07-13T01:13:46;1.47;;;1.00;;
71655;SDS011;59497;48.798;8.816;2023-07-13T01:16:13;4.00;;;0.70;;
71655;SDS011;59497;48.798;8.816;2023-07-13T01:18:39;3.43;;;1.20;;
71655;SDS011;59497;48.798;8.816;2023-07-13T01:21:04;1.67;;;0.80;;
71655;SDS011;59497;48.798;8.816;2023-07-13T01:23:29;3.20;;;1.10;;
71655;SDS011;59497;48.798;8.816;2023-07-13T01:25:55;1.17;;;0.80;;
71655;SDS011;59497;48.798;8.816;2023-07-13T01:28:21;2.37;;;1.37;;
71655;SDS011;59497;48.798;8.816;2023-07-13T01:30:46;4.40;;;1.20;;
71655;SDS011;59497;48.798;8.816;2023-07-13T01:33:16;1.53;;;1.00;;
71655;SDS011;59497;48.798;8.816;2023-07-13T01:35:42;1.75;;;1.00;;
71655;SDS011;59497;48.798;8.816;2023-07-13T01:38:08;2.75;;;1.40;;
71655;SDS011;59497;48.798;8.816;2023-07-13T01:40:35;3.40;;;0.93;;
71655;SDS011;59497;48.798;8.816;2023-07-13T01:43:01;1.90;;;1.02;;
71655;SDS011;59497;48.798;8.816;2023-07-13T01:45:26;2.13;;;1.40;;
71655;SDS011;59497;48.798;8.816;2023-07-13T01:47:51;2.17;;;1.10;;
71655;SDS011;59497;48.798;8.816;2023-07-13T01:50:16;1.63;;;1.00;;
71655;SDS011;59497;48.798;8.816;2023-07-13T01:52:41;2.23;;;1.00;;
71655;SDS011;59497;48.798;8.816;2023-07-13T01:55:07;2.00;;;1.27;;
71655;SDS011;59497;48.798;8.816;2023-07-13T01:57:32;3.27;;;1.20;;
71655;SDS011;59497;48.798;8.816;2023-07-13T01:59:58;1.67;;;1.10;;
71655;SDS011;59497;48.798;8.816;2023-07-13T02:02:23;4.50;;;0.90;;
71655;SDS011;59497;48.798;8.816;2023-07-13T02:04:48;3.10;;;1.10;;
71655;SDS011;59497;48.798;8.816;2023-07-13T02:07:14;1.80;;;1.13;;
71655;SDS011;59497;48.798;8.816;2023-07-13T02:09:40;2.28;;;1.58;;
71655;SDS011;59497;48.798;8.816;2023-07-13T02:12:05;5.53;;;1.00;;
71655;SDS011;59497;48.798;8.816;2023-07-13T02:14:30;2.22;;;1.30;;
71655;SDS011;59497;48.798;8.816;2023-07-13T02:16:56;3.57;;;1.10;;
71655;SDS011;59497;48.798;8.816;2023-07-13T02:19:21;1.90;;;1.30;;
71655;SDS011;59497;48.798;8.816;2023-07-13T02:21:46;4.33;;;2.03;;
71655;SDS011;59497;48.798;8.816;2023-07-13T02:24:11;3.90;;;1.50;;
71655;SDS011;59497;48.798;8.816;2023-07-13T02:26:42;2.20;;;1.40;;
71655;SDS011;59497;48.798;8.816;2023-07-13T02:29:07;5.13;;;1.50;;
71655;SDS011;59497;48.798;8.816;2023-07-13T02:31:32;1.70;;;1.50;;
71655;SDS011;59497;48.798;8.816;2023-07-13T02:33:57;1.27;;;1.10;;
71655;SDS011;59497;48.798;8.816;2023-07-13T02:36:23;4.27;;;1.43;;
71655;SDS011;59497;48.798;8.816;2023-07-13T02:38:49;4.43;;;1.57;;
71655;SDS011;59497;48.798;8.816;2023-07-13T02:41:14;1.57;;;1.20;;
71655;SDS011;59497;48.798;8.816;2023-07-13T02:43:39;2.80;;;1.30;;
71655;SDS011;59497;48.798;8.816;2023-07-13T02:46:05;2.10;;;1.33;;
71655;SDS011;59497;48.798;8.816;2023-07-13T02:48:36;1.58;;;0.90;;
71655;SDS011;59497;48.798;8.816;2023-07-13T02:51:02;3.40;;;1.30;;
71655;SDS011;59497;48.798;8.816;2023-07-13T02:53:27;2.77;;;1.20;;
71655;SDS011;59497;48.798;8.816;2023-07-13T02:55:52;3.80;;;1.10;;
71655;SDS011;59497;48.798;8.816;2023-07-13T02:58:18;1.43;;;1.00;;
71655;SDS011;59497;48.798;8.816;2023-07-13T03:00:44;2.58;;;1.17;;
71655;SDS011;59497;48.798;8.816;2023-07-13T03:03:11;2.78;;;1.15;;
71655;SDS011;59497;48.798;8.816;2023-07-13T03:05:37;1.93;;;1.13;;
71655;SDS011;59497;48.798;8.816;2023-07-13T03:08:02;1.60;;;1.47;;
71655;SDS011;59497;48.798;8.816;2023-07-13T03:10:28;1.40;;;1.30;;
71655;SDS011;59497;48.798;8.816;2023-07-13T03:12:54;2.97;;;1.20;;
71655;SDS011;59497;48.798;8.816;2023-07-13T03:15:19;2.60;;;1.30;;
71655;SDS011;59497;48.798;8.816;2023-07-13T03:17:44;1.97;;;1.53;;
71655;SDS011;59497;48.798;8.816;2023-07-13T03:20:09;1.40;;;1.27;;
71655;SDS011;59497;48.798;8.816;2023-07-13T03:22:35;2.67;;;1.40;;
71655;SDS011;59497;48.798;8.816;2023-07-13T03:25:00;2.23;;;1.10;;
71655;SDS011;59497;48.798;8.816;2023-07-13T03:27:25;3.93;;;1.33;;
71655;SDS011;59497;48.798;8.816;2023-07-13T03:29:50;2.60;;;1.20;;
71655;SDS011;59497;48.798;8.816;2023-07-13T03:32:15;3.27;;;2.10;;
71655;SDS011;59497;48.798;8.816;2023-07-13T03:34:40;3.07;;;1.53;;
71655;SDS011;59497;48.798;8.816;2023-07-13T03:37:06;2.40;;;1.50;;
71655;SDS011;59497;48.798;8.816;2023-07-13T03:39:31;2.93;;;1.20;;
71655;SDS011;59497;48.798;8.816;2023-07-13T03:41:56;2.47;;;1.57;;
71655;SDS011;59497;48.798;8.816;2023-07-13T03:44:21;3.30;;;1.53;;
71655;SDS011;59497;48.798;8.816;2023-07-13T03:46:46;2.57;;;1.83;;
71655;SDS011;59497;48.798;8.816;2023-07-13T03:49:12;2.27;;;1.40;;
71655;SDS011;59497;48.798;8.816;2023-07-13T03:51:37;5.40;;;2.10;;
71655;SDS011;59497;48.798;8.816;2023-07-13T03:54:02;3.10;;;1.70;;
71655;SDS011;59497;48.798;8.816;2023-07-13T03:56:28;2.35;;;1.90;;
71655;SDS011;59497;48.798;8.816;2023-07-13T03:58:53;1.87;;;1.50;;
71655;SDS011;59497;48.798;8.816;2023-07-13T04:01:19;2.37;;;1.50;;
71655;SDS011;59497;48.798;8.816;2023-07-13T04:03:45;2.65;;;1.80;;
71655;SDS011;59497;48.798;8.816;2023-07-13T04:06:29;3.35;;;1.80;;
71655;SDS011;59497;48.798;8.816;2023-07-13T04:08:59;1.98;;;1.60;;
71655;SDS011;59497;48.798;8.816;2023-07-13T04:11:25;2.47;;;1.40;;
71655;SDS011;59497;48.798;8.816;2023-07-13T04:13:51;2.40;;;1.65;;
71655;SDS011;59497;48.798;8.816;2023-07-13T04:16:17;3.22;;;1.92;;
71655;SDS011;59497;48.798;8.816;2023-07-13T04:18:43;2.05;;;1.63;;
71655;SDS011;59497;48.798;8.816;2023-07-13T04:21:08;2.13;;;1.40;;
71655;SDS011;59497;48.798;8.816;2023-07-13T04:23:36;1.40;;;1.25;;
71655;SDS011;59497;48.798;8.816;2023-07-13T04:26:02;1.60;;;1.07;;
71655;SDS011;59497;48.798;8.816;2023-07-13T04:28:27;2.43;;;1.40;;
71655;SDS011;59497;48.798;8.816;2023-07-13T04:30:53;2.67;;;1.87;;
71655;SDS011;59497;48.798;8.816;2023-07-13T04:33:18;2.22;;;1.80;;
71655;SDS011;59497;48.798;8.816;2023-07-13T04:35:47;4.90;;;1.70;;
71655;SDS011;59497;48.798;8.816;2023-07-13T04:38:15;2.23;;;1.60;;
71655;SDS011;59497;48.798;8.816;2023-07-13T04:40:42;2.78;;;1.35;;
71655;SDS011;59497;48.798;8.816;2023-07-13T04:43:07;3.72;;;1.52;;
71655;SDS011;59497;48.798;8.816;2023-07-13T04:45:32;2.33;;;1.50;;
71655;SDS011;59497;48.798;8.816;2023-07-13T04:47:59;2.00;;;1.73;;
71655;SDS011;59497;48.798;8.816;2023-07-13T04:50:25;2.13;;;1.90;;
71655;SDS011;59497;48.798;8.816;2023-07-13T04:52:50;1.70;;;1.60;;
71655;SDS011;59497;48.798;8.816;2023-07-13T04:55:16;2.20;;;2.00;;
71655;SDS011;59497;48.798;8.816;2023-07-13T04:57:41;2.20;;;1.50;;
71655;SDS011;59497;48.798;8.816;2023-07-13T05:00:06;2.57;;;1.43;;
71655;SDS011;59497;48.798;8.816;2023-07-13T05:02:32;3.07;;;1.80;;
71655;SDS011;59497;48.798;8.816;2023-07-13T05:04:58;3.40;;;2.10;;
71655;SDS011;59497;48.798;8.816;2023-07-13T05:07:23;2.20;;;1.57;;
71655;SDS011;59497;48.798;8.816;2023-07-13T05:09:48;2.00;;;1.33;;
71655;SDS011;59497;48.798;8.816;2023-07-13T05:12:13;2.73;;;1.60;;
71655;SDS011;59497;48.798;8.816;2023-07-13T05:14:39;1.80;;;1.67;;
71655;SDS011;59497;48.798;8.816;2023-07-13T05:17:04;3.10;;;1.40;;
71655;SDS011;59497;48.798;8.816;2023-07-13T05:19:29;2.67;;;1.70;;
71655;SDS011;59497;48.798;8.816;2023-07-13T05:21:54;3.37;;;2.30;;
71655;SDS011;59497;48.798;8.816;2023-07-13T05:24:19;4.50;;;1.97;;
71655;SDS011;59497;48.798;8.816;2023-07-13T05:26:45;1.80;;;1.47;;
71655;SDS011;59497;48.798;8.816;2023-07-13T05:29:10;3.87;;;1.67;;
71655;SDS011;59497;48.798;8.816;2023-07-13T05:31:35;3.87;;;1.67;;
71655;SDS011;59497;48.798;8.816;2023-07-13T05:34:01;3.40;;;1.65;;
71655;SDS011;59497;48.798;8.816;2023-07-13T05:36:26;2.90;;;1.20;;
71655;SDS011;59497;48.798;8.816;2023-07-13T05:38:51;2.40;;;1.80;;
71655;SDS011;59497;48.798;8.816;2023-07-13T05:41:17;2.83;;;1.63;;
71655;SDS011;59497;48.798;8.816;2023-07-13T05:43:42;3.63;;;1.80;;
71655;SDS011;59497;48.798;8.816;2023-07-13T05:46:07;3.23;;;1.57;;
71655;SDS011;59497;48.798;8.816;2023-07-13T05:48:32;2.33;;;1.43;;
71655;SDS011;59497;48.798;8.816;2023-07-13T05:50:57;3.63;;;1.70;;
71655;SDS011;59497;48.798;8.816;2023-07-13T05:53:23;4.47;;;1.70;;
71655;SDS011;59497;48.798;8.816;2023-07-13T05:55:48;1.70;;;1.60;;
71655;SDS011;59497;48.798;8.816;2023-07-13T05:58:16;2.75;;;1.63;;
71655;SDS011;59497;48.798;8.816;2023-07-13T06:00:41;1.90;;;1.30;;
71655;SDS011;59497;48.798;8.816;2023-07-13T06:03:06;2.00;;;1.30;;
71655;SDS011;59497;48.798;8.816;2023-07-13T06:05:32;2.47;;;1.60;;
71655;SDS011;59497;48.798;8.816;2023-07-13T06:07:58;3.85;;;1.80;;
71655;SDS011;59497;48.798;8.816;2023-07-13T06:10:23;2.50;;;1.43;;
71655;SDS011;59497;48.798;8.816;2023-07-13T06:12:49;1.73;;;1.63;;
71655;SDS011;59497;48.798;8.816;2023-07-13T06:15:14;2.77;;;2.03;;
71655;SDS011;59497;48.798;8.816;2023-07-13T06:17:39;6.10;;;1.80;;
71655;SDS011;59497;48.798;8.816;2023-07-13T06:20:05;2.60;;;1.17;;
71655;SDS011;59497;48.798;8.816;2023-07-13T06:22:30;2.20;;;1.67;;
71655;SDS011;59497;48.798;8.816;2023-07-13T06:24:55;2.83;;;1.60;;
71655;SDS011;59497;48.798;8.816;2023-07-13T06:27:21;1.83;;;1.60;;
71655;SDS011;59497;48.798;8.816;2023-07-13T06:29:46;3.60;;;1.40;;
71655;SDS011;59497;48.798;8.816;2023-07-13T06:32:11;2.37;;;1.33;;
71655;SDS011;59497;48.798;8.816;2023-07-13T06:34:36;3.63;;;1.50;;
71655;SDS011;59497;48.798;8.816;2023-07-13T06:37:01;2.47;;;1.50;;
71655;SDS011;59497;48.798;8.816;2023-07-13T06:39:27;4.17;;;2.17;;
71655;SDS011;59497;48.798;8.816;2023-07-13T06:41:52;2.00;;;1.50;;
71655;SDS011;59497;48.798;8.816;2023-07-13T06:44:17;2.37;;;1.67;;
71655;SDS011;59497;48.798;8.816;2023-07-13T06:46:42;3.37;;;1.30;;
71655;SDS011;59497;48.798;8.816;2023-07-13T06:49:08;1.93;;;1.60;;
71655;SDS011;59497;48.798;8.816;2023-07-13T06:51:33;2.13;;;1.40;;
71655;SDS011;59497;48.798;8.816;2023-07-13T06:53:58;3.27;;;1.83;;
71655;SDS011;59497;48.798;8.816;2023-07-13T06:56:24;2.60;;;1.40;;
71655;SDS011;59497;48.798;8.816;2023-07-13T06:58:49;3.87;;;1.43;;
71655;SDS011;59497;48.798;8.816;2023-07-13T07:01:14;3.03;;;2.20;;
71655;SDS011;59497;48.798;8.816;2023-07-13T07:03:40;4.60;;;1.63;;
71655;SDS011;59497;48.798;8.816;2023-07-13T07:06:16;2.57;;;1.60;;
71655;SDS011;59497;48.798;8.816;2023-07-13T07:08:42;3.47;;;1.92;;
71655;SDS011;59497;48.798;8.816;2023-07-13T07:11:12;3.13;;;1.50;;
71655;SDS011;59497;48.798;8.816;2023-07-13T07:13:38;2.50;;;1.70;;
71655;SDS011;59497;48.798;8.816;2023-07-13T07:16:03;1.97;;;1.60;;
71655;SDS011;59497;48.798;8.816;2023-07-13T07:18:28;1.60;;;1.50;;
71655;SDS011;59497;48.798;8.816;2023-07-13T07:20:53;2.73;;;1.30;;
71655;SDS011;59497;48.798;8.816;2023-07-13T07:23:19;2.30;;;1.43;;
71655;SDS011;59497;48.798;8.816;2023-07-13T07:25:44;3.93;;;1.60;;
71655;SDS011;59497;48.798;8.816;2023-07-13T07:28:09;1.50;;;1.17;;
71655;SDS011;59497;48.798;8.816;2023-07-13T07:30:34;1.67;;;1.50;;
71655;SDS011;59497;48.798;8.816;2023-07-13T07:33:00;4.00;;;1.88;;
71655;SDS011;59497;48.798;8.816;2023-07-13T07:35:26;1.50;;;1.40;;
71655;SDS011;59497;48.798;8.816;2023-07-13T07:37:51;3.93;;;1.87;;
71655;SDS011;59497;48.798;8.816;2023-07-13T07:40:16;2.63;;;1.67;;
71655;SDS011;59497;48.798;8.816;2023-07-13T07:42:41;2.30;;;1.60;;
71655;SDS011;59497;48.798;8.816;2023-07-13T07:45:07;1.93;;;1.57;;
71655;SDS011;59497;48.798;8.816;2023-07-13T07:47:32;5.47;;;2.10;;
71655;SDS011;59497;48.798;8.816;2023-07-13T07:49:57;1.20;;;1.20;;
71655;SDS011;59497;48.798;8.816;2023-07-13T07:52:22;3.45;;;1.42;;
71655;SDS011;59497;48.798;8.816;2023-07-13T07:54:47;2.47;;;1.53;;
71655;SDS011;59497;48.798;8.816;2023-07-13T07:57:13;2.87;;;2.10;;
71655;SDS011;59497;48.798;8.816;2023-07-13T07:59:38;2.17;;;1.60;;
71655;SDS011;59497;48.798;8.816;2023-07-13T08:02:03;2.13;;;1.60;;
71655;SDS011;59497;48.798;8.816;2023-07-13T08:04:28;1.47;;;1.33;;
71655;SDS011;59497;48.798;8.816;2023-07-13T08:06:54;1.77;;;1.60;;
71655;SDS011;59497;48.798;8.816;2023-07-13T08:09:21;1.73;;;1.58;;
71655;SDS011;59497;48.798;8.816;2023-07-13T08:11:46;5.10;;;1.60;;
71655;SDS011;59497;48.798;8.816;2023-07-13T08:14:11;3.53;;;1.23;;
71655;SDS011;59497;48.798;8.816;2023-07-13T08:16:36;3.23;;;2.07;;
71655;SDS011;59497;48.798;8.816;2023-07-13T08:19:02;2.67;;;1.83;;
71655;SDS011;59497;48.798;8.816;2023-07-13T08:21:27;1.73;;;1.30;;
71655;SDS011;59497;48.798;8.816;2023-07-13T08:23:53;4.13;;;2.10;;
71655;SDS011;59497;48.798;8.816;2023-07-13T08:26:18;1.90;;;1.20;;
71655;SDS011;59497;48.798;8.816;2023-07-13T08:28:43;3.97;;;1.43;;
71655;SDS011;59497;48.798;8.816;2023-07-13T08:31:09;1.90;;;1.20;;
71655;SDS011;59497;48.798;8.816;2023-07-13T08:33:34;2.47;;;1.40;;
71655;SDS011;59497;48.798;8.816;2023-07-13T08:36:00;2.07;;;1.17;;
71655;SDS011;59497;48.798;8.816;2023-07-13T08:38:25;3.37;;;1.40;;
71655;SDS011;59497;48.798;8.816;2023-07-13T08:40:53;1.80;;;1.00;;
71655;SDS011;59497;48.798;8.816;2023-07-13T08:46:23;2.33;;;1.52;;
71655;SDS011;59497;48.798;8.816;2023-07-13T08:48:46;2.28;;;1.17;;
71655;SDS011;59497;48.798;8.816;2023-07-13T08:51:20;2.70;;;1.20;;
71655;SDS011;59497;48.798;8.816;2023-07-13T08:53:47;1.53;;;1.17;;
71655;SDS011;59497;48.798;8.816;2023-07-13T08:56:16;1.98;;;1.30;;
71655;SDS011;59497;48.798;8.816;2023-07-13T08:58:42;2.03;;;1.73;;
71655;SDS011;59497;48.798;8.816;2023-07-13T09:01:20;1.45;;;1.35;;
71655;SDS011;59497;48.798;8.816;2023-07-13T09:07:13;3.47;;;1.30;;
71655;SDS011;59497;48.798;8.816;2023-07-13T09:12:13;2.05;;;1.60;;
71655;SDS011;59497;48.798;8.816;2023-07-13T09:14:41;2.25;;;1.50;;
71655;SDS011;59497;48.798;8.816;2023-07-13T09:17:27;1.85;;;1.75;;
71655;SDS011;59497;48.798;8.816;2023-07-13T09:19:56;2.63;;;1.50;;
71655;SDS011;59497;48.798;8.816;2023-07-13T09:22:23;1.88;;;1.33;;
71655;SDS011;59497;48.798;8.816;2023-07-13T09:24:52;1.50;;;1.15;;
71655;SDS011;59497;48.798;8.816;2023-07-13T09:27:19;2.95;;;1.77;;
71655;SDS011;59497;48.798;8.816;2023-07-13T09:29:49;3.35;;;1.65;;
71655;SDS011;59497;48.798;8.816;2023-07-13T09:32:16;2.47;;;1.57;;
71655;SDS011;59497;48.798;8.816;2023-07-13T09:34:49;3.17;;;1.30;;
71655;SDS011;59497;48.798;8.816;2023-07-13T09:37:19;2.58;;;2.22;;
71655;SDS011;59497;48.798;8.816;2023-07-13T09:39:48;3.13;;;1.33;;
71655;SDS011;59497;48.798;8.816;2023-07-13T09:42:15;3.13;;;1.88;;
71655;SDS011;59497;48.798;8.816;2023-07-13T09:47:19;2.45;;;1.38;;
71655;SDS011;59497;48.798;8.816;2023-07-13T09:49:45;3.35;;;1.70;;
71655;SDS011;59497;48.798;8.816;2023-07-13T09:52:16;3.83;;;1.65;;
71655;SDS011;59497;48.798;8.816;2023-07-13T09:54:45;2.33;;;1.80;;
71655;SDS011;59497;48.798;8.816;2023-07-13T09:57:22;5.60;;;2.10;;
71655;SDS011;59497;48.798;8.816;2023-07-13T09:59:49;3.42;;;1.83;;
71655;SDS011;59497;48.798;8.816;2023-07-13T10:02:34;2.10;;;1.53;;
71655;SDS011;59497;48.798;8.816;2023-07-13T10:05:04;1.50;;;1.40;;
71655;SDS011;59497;48.798;8.816;2023-07-13T10:07:31;2.30;;;1.65;;
71655;SDS011;59497;48.798;8.816;2023-07-13T10:09:57;1.45;;;1.33;;
71655;SDS011;59497;48.798;8.816;2023-07-13T10:12:23;2.35;;;1.70;;
71655;SDS011;59497;48.798;8.816;2023-07-13T10:14:50;1.73;;;1.27;;
71655;SDS011;59497;48.798;8.816;2023-07-13T10:17:16;2.28;;;1.67;;
71655;SDS011;59497;48.798;8.816;2023-07-13T10:19:44;2.30;;;2.10;;
71655;SDS011;59497;48.798;8.816;2023-07-13T10:22:22;2.42;;;1.50;;
71655;SDS011;59497;48.798;8.816;2023-07-13T10:24:48;1.65;;;1.40;;
71655;SDS011;59497;48.798;8.816;2023-07-13T10:27:16;2.63;;;1.40;;
71655;SDS011;59497;48.798;8.816;2023-07-13T10:29:44;2.45;;;1.67;;
71655;SDS011;59497;48.798;8.816;2023-07-13T10:32:12;4.15;;;1.60;;
71655;SDS011;59497;48.798;8.816;2023-07-13T10:34:53;4.03;;;1.75;;
71655;SDS011;59497;48.798;8.816;2023-07-13T10:38:10;2.25;;;2.03;;
71655;SDS011;59497;48.798;8.816;2023-07-13T10:43:34;2.50;;;1.55;;
71655;SDS011;59497;48.798;8.816;2023-07-13T10:46:10;2.15;;;1.60;;
71655;SDS011;59497;48.798;8.816;2023-07-13T10:49:01;2.65;;;1.70;;
71655;SDS011;59497;48.798;8.816;2023-07-13T10:51:33;2.65;;;2.00;;
71655;SDS011;59497;48.798;8.816;2023-07-13T10:54:36;3.00;;;1.60;;
71655;SDS011;59497;48.798;8.816;2023-07-13T10:59:35;1.70;;;1.60;;
71655;SDS011;59497;48.798;8.816;2023-07-13T11:05:42;3.25;;;1.70;;
71655;SDS011;59497;48.798;8.816;2023-07-13T11:08:23;2.53;;;1.50;;
71655;SDS011;59497;48.798;8.816;2023-07-13T11:15:02;1.80;;;1.70;;
71655;SDS011;59497;48.798;8.816;2023-07-13T11:18:10;2.90;;;1.90;;
71655;SDS011;59497;48.798;8.816;2023-07-13T11:21:15;5.18;;;2.28;;
71655;SDS011;59497;48.798;8.816;2023-07-13T11:24:47;4.17;;;1.70;;
71655;SDS011;59497;48.798;8.816;2023-07-13T11:30:06;4.78;;;2.58;;
71655;SDS011;59497;48.798;8.816;2023-07-13T11:42:08;2.83;;;1.65;;
71655;SDS011;59497;48.798;8.816;2023-07-13T11:44:50;2.92;;;2.40;;
71655;SDS011;59497;48.798;8.816;2023-07-13T11:47:23;1.70;;;1.60;;
71655;SDS011;59497;48.798;8.816;2023-07-13T11:50:03;2.65;;;2.10;;
71655;SDS011;59497;48.798;8.816;2023-07-13T11:52:38;1.93;;;1.70;;
71655;SDS011;59497;48.798;8.816;2023-07-13T11:55:04;3.25;;;2.05;;
71655;SDS011;59497;48.798;8.816;2023-07-13T11:57:39;2.92;;;2.13;;
71655;SDS011;59497;48.798;8.816;2023-07-13T12:00:11;2.83;;;2.60;;
71655;SDS011;59497;48.798;8.816;2023-07-13T12:02:39;2.22;;;1.85;;
71655;SDS011;59497;48.798;8.816;2023-07-13T12:05:05;3.17;;;1.98;;
71655;SDS011;59497;48.798;8.816;2023-07-13T12:07:32;4.30;;;1.73;;
71655;SDS011;59497;48.798;8.816;2023-07-13T12:10:31;3.15;;;2.22;;
71655;SDS011;59497;48.798;8.816;2023-07-13T12:13:00;4.70;;;3.58;;
71655;SDS011;59497;48.798;8.816;2023-07-13T12:15:32;2.00;;;1.80;;
71655;SDS011;59497;48.798;8.816;2023-07-13T12:18:00;2.40;;;1.95;;
71655;SDS011;59497;48.798;8.816;2023-07-13T12:20:26;3.50;;;2.17;;
71655;SDS011;59497;48.798;8.816;2023-07-13T12:22:52;2.23;;;1.83;;
71655;SDS011;59497;48.798;8.816;2023-07-13T12:25:17;1.98;;;1.77;;
71655;SDS011;59497;48.798;8.816;2023-07-13T12:27:46;3.45;;;2.53;;
71655;SDS011;59497;48.798;8.816;2023-07-13T12:32:42;2.20;;;1.80;;
71655;SDS011;59497;48.798;8.816;2023-07-13T12:35:14;2.17;;;1.97;;
71655;SDS011;59497;48.798;8.816;2023-07-13T12:37:43;2.53;;;1.83;;
71655;SDS011;59497;48.798;8.816;2023-07-13T12:40:16;3.97;;;1.98;;
71655;SDS011;59497;48.798;8.816;2023-07-13T12:42:41;3.67;;;2.45;;
71655;SDS011;59497;48.798;8.816;2023-07-13T12:45:23;3.53;;;1.93;;
71655;SDS011;59497;48.798;8.816;2023-07-13T12:47:50;2.95;;;1.92;;
71655;SDS011;59497;48.798;8.816;2023-07-13T12:50:16;2.87;;;2.43;;
71655;SDS011;59497;48.798;8.816;2023-07-13T12:52:42;2.88;;;2.55;;
71655;SDS011;59497;48.798;8.816;2023-07-13T12:55:13;2.17;;;1.98;;
71655;SDS011;59497;48.798;8.816;2023-07-13T12:57:40;4.28;;;2.28;;
71655;SDS011;59497;48.798;8.816;2023-07-13T13:00:13;5.55;;;1.95;;
71655;SDS011;59497;48.798;8.816;2023-07-13T13:02:44;3.93;;;2.80;;
71655;SDS011;59497;48.798;8.816;2023-07-13T13:05:10;2.33;;;2.13;;
71655;SDS011;59497;48.798;8.816;2023-07-13T13:07:39;3.75;;;2.72;;
71655;SDS011;59497;48.798;8.816;2023-07-13T13:10:12;2.27;;;2.07;;
71655;SDS011;59497;48.798;8.816;2023-07-13T13:12:38;3.25;;;2.92;;
71655;SDS011;59497;48.798;8.816;2023-07-13T13:15:04;3.10;;;2.20;;
71655;SDS011;59497;48.798;8.816;2023-07-13T13:17:31;2.40;;;2.20;;
71655;SDS011;59497;48.798;8.816;2023-07-13T13:19:57;3.20;;;1.50;;
71655;SDS011;59497;48.798;8.816;2023-07-13T13:22:22;2.07;;;1.70;;
71655;SDS011;59497;48.798;8.816;2023-07-13T13:24:48;1.95;;;1.85;;
71655;SDS011;59497;48.798;8.816;2023-07-13T13:27:16;3.77;;;2.17;;
71655;SDS011;59497;48.798;8.816;2023-07-13T13:29:42;3.60;;;2.47;;
71655;SDS011;59497;48.798;8.816;2023-07-13T13:32:10;2.90;;;2.22;;
71655;SDS011;59497;48.798;8.816;2023-07-13T13:34:36;3.30;;;2.60;;
71655;SDS011;59497;48.798;8.816;2023-07-13T13:37:02;2.33;;;2.13;;
71655;SDS011;59497;48.798;8.816;2023-07-13T13:39:35;2.35;;;2.03;;
71655;SDS011;59497;48.798;8.816;2023-07-13T13:42:01;3.15;;;2.22;;
71655;SDS011;59497;48.798;8.816;2023-07-13T13:44:27;2.07;;;1.90;;
71655;SDS011;59497;48.798;8.816;2023-07-13T13:46:54;2.63;;;2.30;;
71655;SDS011;59497;48.798;8.816;2023-07-13T13:49:24;2.58;;;1.88;;
71655;SDS011;59497;48.798;8.816;2023-07-13T13:51:50;2.75;;;2.40;;
71655;SDS011;59497;48.798;8.816;2023-07-13T13:54:16;2.83;;;1.97;;
71655;SDS011;59497;48.798;8.816;2023-07-13T13:56:42;2.85;;;2.28;;
71655;SDS011;59497;48.798;8.816;2023-07-13T13:59:08;2.53;;;2.33;;
71655;SDS011;59497;48.798;8.816;2023-07-13T14:01:34;2.78;;;1.70;;
71655;SDS011;59497;48.798;8.816;2023-07-13T14:04:02;3.28;;;2.40;;
71655;SDS011;59497;48.798;8.816;2023-07-13T14:06:27;3.27;;;1.97;;
71655;SDS011;59497;48.798;8.816;2023-07-13T14:08:53;1.77;;;1.57;;
71655;SDS011;59497;48.798;8.816;2023-07-13T14:11:20;3.13;;;1.70;;
71655;SDS011;59497;48.798;8.816;2023-07-13T14:13:56;3.92;;;2.15;;
71655;SDS011;59497;48.798;8.816;2023-07-13T14:16:24;4.25;;;1.85;;
71655;SDS011;59497;48.798;8.816;2023-07-13T14:18:53;2.50;;;2.30;;
71655;SDS011;59497;48.798;8.816;2023-07-13T14:21:20;2.80;;;2.40;;
71655;SDS011;59497;48.798;8.816;2023-07-13T14:23:48;2.17;;;2.00;;
71655;SDS011;59497;48.798;8.816;2023-07-13T14:26:24;2.30;;;2.03;;
71655;SDS011;59497;48.798;8.816;2023-07-13T14:28:59;5.53;;;2.58;;
71655;SDS011;59497;48.798;8.816;2023-07-13T14:31:25;2.20;;;2.10;;
71655;SDS011;59497;48.798;8.816;2023-07-13T14:33:50;2.80;;;2.60;;
71655;SDS011;59497;48.798;8.816;2023-07-13T14:38:47;4.07;;;2.80;;
71655;SDS011;59497;48.798;8.816;2023-07-13T14:41:19;2.78;;;2.53;;
71655;SDS011;59497;48.798;8.816;2023-07-13T14:43:46;3.67;;;2.57;;
71655;SDS011;59497;48.798;8.816;2023-07-13T14:46:27;4.30;;;2.53;;
71655;SDS011;59497;48.798;8.816;2023-07-13T14:49:02;3.97;;;2.28;;
71655;SDS011;59497;48.798;8.816;2023-07-13T14:51:39;2.80;;;2.60;;
71655;SDS011;59497;48.798;8.816;2023-07-13T14:54:05;3.27;;;2.97;;
71655;SDS011;59497;48.798;8.816;2023-07-13T14:56:31;2.93;;;2.73;;
71655;SDS011;59497;48.798;8.816;2023-07-13T14:58:56;2.43;;;2.30;;
71655;SDS011;59497;48.798;8.816;2023-07-13T15:01:21;2.57;;;2.47;;
71655;SDS011;59497;48.798;8.816;2023-07-13T15:03:48;2.63;;;2.43;;
71655;SDS011;59497;48.798;8.816;2023-07-13T15:06:13;3.25;;;2.58;;
71655;SDS011;59497;48.798;8.816;2023-07-13T15:08:39;2.43;;;2.00;;
71655;SDS011;59497;48.798;8.816;2023-07-13T15:11:06;4.18;;;3.15;;
71655;SDS011;59497;48.798;8.816;2023-07-13T15:13:31;3.15;;;2.92;;
71655;SDS011;59497;48.798;8.816;2023-07-13T15:15:56;3.80;;;3.13;;
71655;SDS011;59497;48.798;8.816;2023-07-13T15:18:22;3.33;;;3.05;;
71655;SDS011;59497;48.798;8.816;2023-07-13T15:20:48;6.03;;;2.40;;
71655;SDS011;59497;48.798;8.816;2023-07-13T15:23:15;3.78;;;3.47;;
71655;SDS011;59497;48.798;8.816;2023-07-13T15:25:41;4.32;;;3.92;;
71655;SDS011;59497;48.798;8.816;2023-07-13T15:28:07;3.47;;;3.08;;
71655;SDS011;59497;48.798;8.816;2023-07-13T15:30:35;3.13;;;2.90;;
71655;SDS011;59497;48.798;8.816;2023-07-13T15:33:09;4.90;;;4.50;;